createdAt,value
2023-01-09T00:04:41.770Z,8.00
2023-01-09T00:09:44.121Z,7.80
2023-01-09T00:14:46.489Z,7.63
2023-01-09T00:19:48.765Z,7.75
2023-01-09T00:24:51.051Z,7.75
2023-01-09T00:29:53.336Z,7.95
2023-01-09T00:34:56.471Z,7.70
2023-01-09T00:39:58.731Z,6.95
2023-01-09T00:45:04.932Z,8.18
2023-01-09T00:50:12.367Z,8.27
2023-01-09T00:55:15.611Z,7.65
2023-01-09T01:00:18.702Z,7.60
2023-01-09T01:05:40.858Z,8.20
2023-01-09T01:10:43.787Z,7.10
2023-01-09T01:15:46.805Z,7.80
2023-01-09T01:20:49.192Z,7.90
2023-01-09T01:25:51.463Z,7.57
2023-01-09T01:30:53.771Z,7.90
2023-01-09T01:36:06.561Z,7.95
2023-01-09T01:41:08.794Z,7.43
2023-01-09T01:46:11.180Z,6.90
2023-01-09T01:51:16.428Z,7.00
2023-01-09T02:01:30.522Z,7.30
2023-01-09T02:06:35.082Z,6.97
2023-01-09T02:12:36.949Z,7.00
2023-01-09T02:29:40.183Z,6.80
2023-01-09T02:34:56.906Z,6.68
2023-01-09T02:40:25.688Z,6.20
2023-01-09T02:45:28.141Z,6.60
2023-01-09T02:50:47.839Z,7.18
2023-01-09T03:01:54.742Z,6.40
2023-01-09T03:07:29.377Z,6.45
2023-01-09T03:12:33.600Z,5.95
2023-01-09T03:17:40.979Z,5.68
2023-01-09T03:22:54.348Z,5.55
2023-01-09T03:27:59.726Z,6.13
2023-01-09T03:33:02.908Z,5.95
2023-01-09T03:38:07.225Z,5.60
2023-01-09T03:43:10.408Z,5.80
2023-01-09T03:48:12.607Z,5.70
2023-01-09T03:53:15.296Z,5.93
2023-01-09T03:58:18.690Z,5.80
2023-01-09T04:03:21.500Z,5.85
2023-01-09T04:08:23.799Z,5.35
2023-01-09T04:13:26.121Z,5.85
2023-01-09T04:18:28.350Z,5.93
2023-01-09T04:23:30.643Z,5.65
2023-01-09T04:28:32.889Z,5.70
2023-01-09T04:33:36.402Z,6.32
2023-01-09T04:38:38.700Z,5.85
2023-01-09T04:43:42.303Z,5.50
2023-01-09T04:48:44.636Z,5.63
2023-01-09T04:53:46.988Z,5.88
2023-01-09T04:58:49.271Z,5.25
2023-01-09T05:03:51.463Z,5.90
2023-01-09T05:08:53.839Z,5.53
2023-01-09T05:13:56.063Z,6.28
2023-01-09T05:18:58.379Z,6.15
2023-01-09T05:24:00.678Z,5.60
2023-01-09T05:29:02.991Z,6.53
2023-01-09T05:34:05.363Z,21.10
2023-01-09T05:39:07.651Z,5.90
2023-01-09T05:44:09.990Z,5.57
2023-01-09T05:49:12.325Z,6.38
2023-01-09T05:54:14.611Z,6.57
2023-01-09T05:59:16.920Z,6.97
2023-01-09T06:04:19.209Z,7.47
2023-01-09T06:09:21.497Z,6.03
2023-01-09T06:14:24.164Z,6.57
2023-01-09T06:19:26.378Z,6.25
2023-01-09T06:24:29.137Z,51.55
2023-01-09T06:29:31.388Z,6.43
2023-01-09T06:34:33.591Z,6.40
2023-01-09T06:39:35.894Z,7.28
2023-01-09T06:44:38.171Z,7.13
2023-01-09T06:49:40.455Z,6.70
2023-01-09T06:54:42.726Z,7.15
2023-01-09T06:59:44.985Z,6.95
2023-01-09T07:04:47.441Z,7.47
2023-01-09T07:09:49.835Z,6.72
2023-01-09T07:14:52.060Z,7.50
2023-01-09T07:19:54.305Z,7.00
2023-01-09T07:24:56.595Z,7.57
2023-01-09T07:29:58.882Z,7.53
2023-01-09T07:35:01.780Z,7.38
2023-01-09T07:40:06.163Z,7.68
2023-01-09T07:45:09.023Z,7.72
2023-01-09T07:50:11.565Z,7.20
2023-01-09T07:55:16.090Z,7.30
2023-01-09T08:00:21.323Z,7.10
2023-01-09T08:05:23.677Z,20.17
2023-01-09T08:10:26.160Z,36.42
2023-01-09T08:15:28.540Z,7.60
2023-01-09T08:20:31.207Z,7.15
2023-01-09T08:25:33.720Z,6.90
2023-01-09T08:30:37.063Z,7.57
2023-01-09T08:35:39.379Z,7.80
2023-01-09T08:40:41.917Z,7.60
2023-01-09T08:46:04.067Z,8.27
2023-01-09T08:51:06.445Z,7.97
2023-01-09T08:56:08.838Z,8.80
2023-01-09T09:01:11.208Z,7.30
2023-01-09T09:06:13.592Z,7.50
2023-01-09T09:11:15.855Z,8.43
2023-01-09T09:16:18.129Z,7.82
2023-01-09T09:21:21.525Z,8.25
2023-01-09T09:26:24.036Z,8.75
2023-01-09T09:31:26.392Z,8.05
2023-01-09T09:36:29.299Z,8.57
2023-01-09T09:42:05.849Z,8.07
2023-01-09T09:57:37.169Z,8.48
2023-01-09T10:02:55.124Z,8.43
2023-01-09T10:08:15.384Z,8.38
2023-01-09T10:13:40.790Z,8.10
2023-01-09T10:24:25.667Z,27.70
2023-01-09T10:29:55.272Z,8.75
2023-01-09T10:45:33.783Z,8.68
2023-01-09T10:50:40.048Z,8.65
2023-01-09T10:55:47.836Z,8.85
2023-01-09T11:00:51.272Z,8.80
2023-01-09T11:05:58.366Z,8.45
2023-01-09T11:11:02.693Z,9.20
2023-01-09T11:26:40.275Z,8.90
2023-01-09T11:31:51.343Z,9.73
2023-01-09T11:37:02.207Z,9.73
2023-01-09T11:42:07.307Z,10.48
2023-01-09T11:47:38.663Z,9.98
2023-01-09T11:52:40.998Z,9.02
2023-01-09T11:57:43.306Z,9.70
2023-01-09T12:03:06.773Z,10.52
2023-01-09T12:08:44.431Z,9.60
2023-01-09T12:14:26.421Z,10.48
2023-01-09T12:35:44.008Z,11.18
2023-01-09T12:56:41.995Z,13.05
2023-01-09T13:01:48.703Z,12.90
2023-01-09T13:06:56.760Z,13.02
2023-01-09T13:12:18.413Z,13.00
2023-01-09T13:17:27.557Z,14.00
2023-01-09T13:22:30.250Z,13.82
2023-01-09T13:27:36.418Z,13.07
2023-01-09T13:33:18.412Z,13.77
2023-01-09T13:38:24.447Z,12.07
2023-01-09T13:43:26.975Z,12.65
2023-01-09T13:48:38.946Z,12.98
2023-01-09T13:59:00.738Z,11.32
2023-01-09T14:09:22.963Z,11.05
2023-01-09T14:14:29.141Z,11.50
2023-01-09T14:19:36.304Z,10.95
2023-01-09T14:29:49.901Z,10.35
2023-01-09T14:35:01.428Z,12.02
2023-01-09T14:40:06.894Z,11.00
2023-01-09T14:45:27.238Z,9.93
2023-01-09T14:56:05.452Z,10.13
2023-01-09T15:06:25.588Z,10.48
2023-01-09T15:11:29.037Z,9.45
2023-01-09T15:16:32.207Z,10.63
2023-01-09T15:21:34.650Z,10.90
2023-01-09T15:26:39.342Z,9.93
2023-01-09T15:31:44.696Z,10.30
2023-01-09T15:36:49.416Z,9.30
2023-01-09T15:42:12.021Z,12.85
2023-01-09T15:47:19.306Z,11.75
2023-01-09T15:52:22.242Z,11.57
2023-01-09T16:02:54.869Z,12.35
2023-01-09T16:07:57.192Z,13.13
2023-01-09T16:12:59.594Z,11.32
2023-01-09T16:23:23.799Z,13.70
2023-01-09T16:28:28.380Z,13.20
2023-01-09T16:33:31.602Z,13.02
2023-01-09T16:38:34.598Z,12.27
2023-01-09T16:43:37.315Z,13.30
2023-01-09T16:48:40.485Z,14.10
2023-01-09T16:53:43.449Z,13.15
2023-01-09T16:58:46.541Z,15.52
2023-01-09T17:03:49.647Z,15.68
2023-01-09T17:08:52.824Z,16.52
2023-01-09T17:13:55.106Z,14.05
2023-01-09T17:18:57.405Z,15.30
2023-01-09T17:24:20.124Z,16.58
2023-01-09T17:29:22.442Z,18.70
2023-01-09T17:34:24.698Z,18.50
2023-01-09T17:39:26.971Z,18.52
2023-01-09T17:44:29.722Z,19.30
2023-01-09T17:49:32.027Z,20.23
2023-01-09T17:54:34.349Z,19.25
2023-01-09T17:59:36.532Z,18.77
2023-01-09T18:04:39.252Z,19.15
2023-01-09T18:09:42.035Z,24.77
2023-01-09T18:14:44.337Z,19.40
2023-01-09T18:19:46.599Z,23.33
2023-01-09T18:24:48.869Z,20.25
2023-01-09T18:29:51.078Z,16.92
2023-01-09T18:34:53.283Z,20.30
2023-01-09T18:39:55.522Z,30.85
2023-01-09T18:44:57.800Z,18.88
2023-01-09T18:50:00.305Z,16.85
2023-01-09T18:55:02.623Z,20.30
2023-01-09T19:00:05.972Z,22.25
2023-01-09T19:05:08.676Z,24.52
2023-01-09T19:10:11.561Z,59.22
2023-01-09T19:15:13.850Z,23.98
2023-01-09T19:20:16.317Z,24.67
2023-01-09T19:25:18.532Z,22.10
2023-01-09T19:30:21.071Z,25.40
2023-01-09T19:35:23.420Z,22.83
2023-01-09T19:40:26.015Z,22.58
2023-01-09T19:45:28.267Z,28.52
2023-01-09T19:50:30.516Z,28.95
2023-01-09T19:55:32.832Z,30.08
2023-01-09T20:00:35.398Z,26.00
2023-01-09T20:05:37.716Z,25.67
2023-01-09T20:10:40.668Z,28.90
2023-01-09T20:15:44.500Z,24.45
2023-01-09T20:20:50.380Z,20.92
2023-01-09T20:25:52.997Z,19.38
2023-01-09T20:30:55.454Z,18.65
2023-01-09T20:36:02.112Z,18.55
2023-01-09T20:41:11.230Z,20.20
2023-01-09T20:46:14.174Z,20.67
2023-01-09T20:51:17.178Z,21.25
2023-01-09T20:56:19.440Z,19.25
2023-01-09T21:01:23.359Z,17.70
2023-01-09T21:06:27.362Z,20.38
2023-01-09T21:11:30.036Z,20.45
2023-01-09T21:16:32.340Z,21.50
2023-01-09T21:21:34.640Z,22.52
2023-01-09T21:26:36.982Z,23.50
2023-01-09T21:31:39.255Z,20.25
2023-01-09T21:36:41.779Z,21.95
2023-01-09T21:42:03.967Z,21.08
2023-01-09T21:47:06.264Z,22.90
2023-01-09T21:52:09.275Z,23.25
2023-01-09T21:57:13.004Z,23.42
2023-01-09T22:02:17.491Z,22.35
2023-01-09T22:07:19.763Z,23.45
2023-01-09T22:12:21.991Z,22.98
2023-01-09T22:18:24.103Z,22.52
2023-01-09T22:24:06.584Z,22.08
2023-01-09T22:29:09.014Z,24.40
2023-01-09T22:34:15.760Z,23.13
2023-01-09T22:39:19.370Z,22.73
2023-01-09T22:44:21.728Z,22.63
2023-01-09T22:49:26.276Z,23.88
2023-01-09T22:54:28.756Z,21.50
2023-01-09T22:59:32.246Z,21.83
2023-01-09T23:04:34.662Z,22.00
2023-01-09T23:09:36.909Z,22.27
2023-01-09T23:14:39.593Z,21.50
2023-01-09T23:19:42.096Z,22.88
2023-01-09T23:24:44.428Z,21.73
2023-01-09T23:29:46.981Z,21.52
2023-01-09T23:34:49.609Z,22.95
2023-01-09T23:39:51.957Z,22.13
2023-01-09T23:44:54.209Z,22.30
2023-01-09T23:49:56.488Z,22.40
2023-01-09T23:54:58.748Z,22.65
